createdAt,value
2022-11-28T00:01:30.036Z,25.85
2022-11-28T00:03:57.952Z,30.63
2022-11-28T00:06:26.273Z,29.52
2022-11-28T00:08:54.770Z,28.20
2022-11-28T00:11:24.152Z,31.23
2022-11-28T00:13:51.854Z,28.50
2022-11-28T00:16:21.964Z,26.42
2022-11-28T00:18:50.040Z,27.58
2022-11-28T00:21:18.854Z,33.08
2022-11-28T00:23:48.056Z,26.23
2022-11-28T00:26:18.103Z,28.13
2022-11-28T00:28:47.648Z,34.70
2022-11-28T00:31:16.894Z,28.17
2022-11-28T00:33:44.753Z,34.72
2022-11-28T00:36:13.372Z,31.25
2022-11-28T00:38:41.719Z,36.15
2022-11-28T00:41:11.874Z,31.00
2022-11-28T00:43:41.634Z,29.38
2022-11-28T00:46:11.972Z,30.77
2022-11-28T00:48:39.847Z,26.60
2022-11-28T00:51:09.170Z,23.90
2022-11-28T00:53:37.856Z,32.92
2022-11-28T00:56:06.603Z,30.83
2022-11-28T00:58:35.814Z,25.00
2022-11-28T01:01:11.466Z,28.42
2022-11-28T01:03:39.798Z,27.90
2022-11-28T01:06:08.132Z,29.95
2022-11-28T01:08:36.009Z,23.95
2022-11-28T01:11:04.157Z,27.23
2022-11-28T01:13:32.396Z,26.95
2022-11-28T01:16:00.189Z,27.02
2022-11-28T01:18:29.325Z,29.00
2022-11-28T01:20:57.044Z,31.30
2022-11-28T01:23:24.773Z,27.65
2022-11-28T01:25:52.560Z,30.00
2022-11-28T01:28:20.380Z,30.00
2022-11-28T01:30:48.140Z,29.75
2022-11-28T01:33:15.906Z,28.15
2022-11-28T01:35:55.296Z,29.95
2022-11-28T01:38:23.162Z,29.20
2022-11-28T01:40:51.118Z,30.58
2022-11-28T01:43:19.052Z,29.95
2022-11-28T01:45:46.968Z,32.15
2022-11-28T01:48:18.933Z,33.92
2022-11-28T01:50:50.076Z,30.90
2022-11-28T01:53:18.249Z,35.63
2022-11-28T01:55:53.867Z,31.50
2022-11-28T01:58:21.726Z,30.73
2022-11-28T02:00:49.922Z,33.00
2022-11-28T02:03:22.933Z,30.25
2022-11-28T02:05:52.790Z,33.03
2022-11-28T02:08:20.999Z,30.30
2022-11-28T02:11:04.537Z,33.67
2022-11-28T02:13:41.146Z,34.28
2022-11-28T02:16:20.157Z,30.27
2022-11-28T02:19:00.458Z,34.47
2022-11-28T02:21:47.816Z,33.03
2022-11-28T02:24:55.852Z,32.63
2022-11-28T02:28:08.954Z,31.20
2022-11-28T02:30:53.903Z,35.38
2022-11-28T02:33:28.695Z,31.05
2022-11-28T02:36:09.121Z,31.30
2022-11-28T02:38:57.674Z,30.75
2022-11-28T02:41:32.393Z,30.33
2022-11-28T02:44:09.795Z,29.10
2022-11-28T02:46:45.366Z,32.10
2022-11-28T02:49:20.631Z,29.75
2022-11-28T02:51:54.055Z,32.53
2022-11-28T02:54:23.080Z,32.58
2022-11-28T02:56:52.171Z,35.13
2022-11-28T02:59:33.051Z,27.48
2022-11-28T03:02:02.502Z,31.35
2022-11-28T03:04:41.695Z,27.15
2022-11-28T03:07:22.497Z,30.33
2022-11-28T03:10:03.293Z,28.75
2022-11-28T03:12:44.248Z,27.55
2022-11-28T03:15:15.632Z,34.47
2022-11-28T03:17:53.512Z,27.05
2022-11-28T03:20:32.130Z,28.60
2022-11-28T03:23:11.269Z,24.70
2022-11-28T03:25:44.373Z,24.80
2022-11-28T03:28:15.611Z,28.25
2022-11-28T03:30:49.419Z,28.63
2022-11-28T03:33:18.926Z,28.48
2022-11-28T03:35:52.599Z,25.77
2022-11-28T03:38:23.403Z,24.33
2022-11-28T03:40:55.749Z,28.70
2022-11-28T03:43:28.509Z,26.42
2022-11-28T03:45:59.517Z,25.75
2022-11-28T03:48:32.032Z,25.52
2022-11-28T03:51:05.134Z,22.95
2022-11-28T03:53:51.873Z,29.77
2022-11-28T03:56:25.616Z,22.85
2022-11-28T03:58:59.176Z,31.83
2022-11-28T04:01:33.233Z,23.90
2022-11-28T04:04:12.210Z,27.48
2022-11-28T04:06:52.205Z,27.17
2022-11-28T04:09:26.807Z,22.88
2022-11-28T04:11:57.815Z,23.55
2022-11-28T04:14:32.817Z,25.90
2022-11-28T04:17:09.207Z,26.40
2022-11-28T04:19:39.538Z,30.38
2022-11-28T04:22:14.326Z,29.42
2022-11-28T04:24:47.006Z,27.10
2022-11-28T04:27:19.854Z,24.05
2022-11-28T04:29:51.192Z,26.63
2022-11-28T04:32:20.698Z,26.52
2022-11-28T04:34:53.143Z,31.08
2022-11-28T04:37:24.581Z,29.90
2022-11-28T04:39:53.926Z,30.80
2022-11-28T04:42:26.203Z,30.42
2022-11-28T04:44:58.432Z,29.67
2022-11-28T04:47:27.093Z,29.95
2022-11-28T04:49:55.659Z,27.23
2022-11-28T04:52:32.428Z,30.38
2022-11-28T04:55:05.279Z,31.48
2022-11-28T04:57:38.124Z,26.50
2022-11-28T05:00:10.492Z,26.98
2022-11-28T05:02:40.280Z,26.42
2022-11-28T05:05:11.244Z,30.20
2022-11-28T05:07:40.399Z,29.40
2022-11-28T05:10:11.693Z,27.30
2022-11-28T05:12:39.599Z,28.30
2022-11-28T05:15:08.930Z,26.58
2022-11-28T05:17:41.961Z,30.00
2022-11-28T05:20:11.020Z,25.25
2022-11-28T05:22:40.216Z,22.48
2022-11-28T05:25:08.529Z,21.48
2022-11-28T05:27:36.631Z,25.40
2022-11-28T05:30:06.089Z,23.10
2022-11-28T05:32:34.302Z,20.20
2022-11-28T05:35:02.081Z,21.75
2022-11-28T05:37:30.133Z,25.92
2022-11-28T05:39:59.377Z,21.88
2022-11-28T05:42:28.501Z,24.98
2022-11-28T05:44:56.567Z,24.77
2022-11-28T05:47:25.270Z,20.35
2022-11-28T05:49:53.163Z,22.95
2022-11-28T05:52:21.038Z,27.65
2022-11-28T05:54:48.861Z,29.60
2022-11-28T05:57:17.968Z,24.50
2022-11-28T05:59:45.964Z,20.38
2022-11-28T06:02:13.839Z,22.50
2022-11-28T06:04:42.204Z,25.30
2022-11-28T06:07:09.955Z,22.33
2022-11-28T06:09:38.010Z,25.38
2022-11-28T06:12:06.011Z,21.77
2022-11-28T06:14:35.314Z,21.67
2022-11-28T06:17:03.165Z,21.67
2022-11-28T06:19:30.927Z,24.67
2022-11-28T06:21:58.672Z,21.35
2022-11-28T06:24:26.442Z,23.65
2022-11-28T06:26:55.094Z,24.98
2022-11-28T06:29:22.997Z,24.70
2022-11-28T06:31:52.231Z,25.38
2022-11-28T06:34:20.029Z,28.40
2022-11-28T06:36:47.904Z,28.05
2022-11-28T06:39:18.218Z,20.08
2022-11-28T06:41:45.996Z,22.10
2022-11-28T06:44:15.575Z,24.73
2022-11-28T06:46:43.725Z,21.25
2022-11-28T06:49:13.606Z,21.80
2022-11-28T06:51:41.874Z,24.65
2022-11-28T06:54:10.155Z,18.58
2022-11-28T06:56:38.129Z,21.05
2022-11-28T06:59:05.847Z,27.58
2022-11-28T07:01:34.460Z,24.60
2022-11-28T07:04:02.362Z,27.27
2022-11-28T07:06:31.500Z,21.58
2022-11-28T07:09:00.459Z,24.15
2022-11-28T07:11:30.507Z,23.58
2022-11-28T07:13:59.292Z,27.85
2022-11-28T07:16:28.682Z,28.00
2022-11-28T07:18:57.286Z,24.75
2022-11-28T07:21:25.413Z,26.45
2022-11-28T07:23:54.582Z,23.05
2022-11-28T07:26:23.542Z,24.80
2022-11-28T07:28:52.257Z,28.38
2022-11-28T07:31:21.840Z,26.88
2022-11-28T07:33:51.503Z,24.52
2022-11-28T07:36:21.570Z,22.77
2022-11-28T07:38:50.741Z,27.30
2022-11-28T07:41:25.979Z,28.00
2022-11-28T07:43:55.875Z,24.38
2022-11-28T07:46:23.811Z,24.17
2022-11-28T07:48:51.742Z,25.05
2022-11-28T07:51:23.209Z,22.85
2022-11-28T07:53:51.124Z,25.27
2022-11-28T07:56:24.880Z,27.23
2022-11-28T07:58:52.757Z,26.80
2022-11-28T08:01:22.675Z,23.05
2022-11-28T08:03:51.106Z,30.13
2022-11-28T08:06:21.727Z,24.45
2022-11-28T08:08:50.701Z,22.40
2022-11-28T08:11:21.687Z,24.25
2022-11-28T08:13:51.829Z,21.90
2022-11-28T08:18:51.697Z,21.73
2022-11-28T08:21:21.532Z,21.63
2022-11-28T08:23:49.255Z,21.92
2022-11-28T08:26:18.051Z,22.08
2022-11-28T08:28:47.637Z,25.00
2022-11-28T08:31:19.238Z,22.50
2022-11-28T08:33:48.547Z,18.52
2022-11-28T08:36:19.187Z,20.75
2022-11-28T08:39:03.532Z,22.77
2022-11-28T08:41:37.996Z,19.70
2022-11-28T08:44:07.310Z,23.65
2022-11-28T08:46:35.476Z,21.15
2022-11-28T08:49:04.576Z,21.75
2022-11-28T08:51:32.979Z,21.15
2022-11-28T08:54:00.974Z,21.15
2022-11-28T08:56:28.852Z,25.45
2022-11-28T08:58:56.939Z,31.20
2022-11-28T09:01:27.618Z,24.33
2022-11-28T09:03:56.401Z,26.00
2022-11-28T09:06:25.279Z,26.15
2022-11-28T09:08:53.880Z,27.67
2022-11-28T09:11:23.863Z,22.75
2022-11-28T09:13:52.302Z,25.27
2022-11-28T09:16:20.177Z,25.65
2022-11-28T09:18:49.611Z,25.63
2022-11-28T09:21:17.414Z,26.10
2022-11-28T09:23:46.137Z,19.75
2022-11-28T09:26:16.017Z,17.92
2022-11-28T09:28:46.641Z,20.67
2022-11-28T09:31:16.127Z,22.70
2022-11-28T09:33:44.390Z,26.65
2022-11-28T09:36:16.083Z,18.08
2022-11-28T09:38:44.159Z,16.75
2022-11-28T09:41:38.140Z,17.33
2022-11-28T09:44:11.449Z,17.38
2022-11-28T09:46:40.671Z,24.60
2022-11-28T09:49:36.778Z,22.42
2022-11-28T09:52:17.917Z,19.85
2022-11-28T09:54:52.090Z,21.65
2022-11-28T09:57:27.347Z,16.00
2022-11-28T09:59:55.171Z,19.10
2022-11-28T10:02:34.073Z,19.35
2022-11-28T10:05:11.195Z,16.92
2022-11-28T10:07:54.994Z,17.00
2022-11-28T10:10:33.362Z,19.48
2022-11-28T10:13:10.169Z,19.88
2022-11-28T10:15:50.091Z,19.38
2022-11-28T10:18:34.502Z,18.02
2022-11-28T10:21:05.901Z,12.45
2022-11-28T10:23:40.703Z,17.90
2022-11-28T10:26:17.134Z,13.10
2022-11-28T10:28:51.262Z,15.10
2022-11-28T10:31:26.336Z,18.98
2022-11-28T10:34:01.242Z,20.35
2022-11-28T10:36:34.434Z,14.35
2022-11-28T10:39:11.538Z,12.32
2022-11-28T10:41:45.982Z,12.57
2022-11-28T10:44:21.658Z,19.23
2022-11-28T10:47:01.130Z,13.88
2022-11-28T11:11:51.386Z,11.50
2022-11-28T11:14:34.631Z,11.57
2022-11-28T11:17:02.486Z,13.38
2022-11-28T11:19:32.820Z,14.50
2022-11-28T11:22:03.700Z,16.13
2022-11-28T11:24:31.949Z,13.77
2022-11-28T11:27:16.049Z,10.55
2022-11-28T11:29:45.652Z,11.75
2022-11-28T11:32:21.871Z,9.98
2022-11-28T11:34:50.398Z,15.43
2022-11-28T11:37:21.923Z,19.50
2022-11-28T11:39:52.067Z,15.98
2022-11-28T11:42:26.921Z,12.13
2022-11-28T11:44:55.479Z,16.35
2022-11-28T11:47:41.859Z,13.27
2022-11-28T11:50:17.831Z,15.77
2022-11-28T11:53:00.843Z,18.30
2022-11-28T11:55:30.555Z,20.17
2022-11-28T11:58:05.678Z,19.50
2022-11-28T12:00:38.839Z,29.10
2022-11-28T12:03:16.519Z,19.50
2022-11-28T12:06:13.383Z,18.85
2022-11-28T12:08:45.153Z,16.02
2022-11-28T12:11:17.577Z,23.23
2022-11-28T12:13:46.858Z,23.05
2022-11-28T12:16:37.616Z,31.02
2022-11-28T12:19:17.031Z,28.75
2022-11-28T12:21:59.346Z,28.20
2022-11-28T12:27:07.636Z,24.00
2022-11-28T12:29:49.803Z,23.10
2022-11-28T12:32:31.209Z,30.67
2022-11-28T12:35:17.099Z,25.63
2022-11-28T12:38:10.243Z,22.75
2022-11-28T12:40:51.813Z,21.40
2022-11-28T12:43:33.533Z,22.85
2022-11-28T12:46:11.260Z,19.38
2022-11-28T12:48:53.607Z,28.67
2022-11-28T12:51:34.219Z,24.85
2022-11-28T12:54:22.871Z,26.08
2022-11-28T12:56:58.411Z,23.05
2022-11-28T12:59:33.737Z,22.38
2022-11-28T13:02:19.914Z,26.60
2022-11-28T13:05:05.878Z,28.95
2022-11-28T13:07:44.153Z,19.63
2022-11-28T13:10:19.674Z,25.85
2022-11-28T13:12:57.500Z,22.52
2022-11-28T13:15:40.921Z,18.17
2022-11-28T13:18:24.182Z,23.40
2022-11-28T13:20:56.802Z,21.63
2022-11-28T13:23:34.275Z,27.38
2022-11-28T13:26:09.396Z,23.70
2022-11-28T13:28:43.065Z,24.08
2022-11-28T13:31:21.216Z,21.92
2022-11-28T13:33:52.908Z,21.50
2022-11-28T13:39:27.835Z,30.60
2022-11-28T13:42:28.769Z,20.20
2022-11-28T13:45:01.173Z,26.90
2022-11-28T13:47:32.698Z,21.67
2022-11-28T13:50:40.716Z,26.83
2022-11-28T13:53:23.955Z,22.33
2022-11-28T13:55:53.951Z,29.17
2022-11-28T13:58:25.973Z,25.30
2022-11-28T14:03:31.728Z,25.45
2022-11-28T14:06:04.503Z,28.02
2022-11-28T14:08:36.220Z,21.23
2022-11-28T14:11:35.151Z,23.35
2022-11-28T14:14:23.550Z,23.90
2022-11-28T14:17:05.063Z,26.35
2022-11-28T14:19:53.721Z,27.80
2022-11-28T14:22:33.219Z,23.25
2022-11-28T14:25:10.199Z,24.02
2022-11-28T14:27:40.803Z,26.50
2022-11-28T14:30:23.675Z,29.05
2022-11-28T14:32:57.836Z,36.05
2022-11-28T14:36:04.858Z,25.55
2022-11-28T14:38:47.816Z,19.38
2022-11-28T14:41:16.893Z,19.15
2022-11-28T14:43:46.455Z,23.63
2022-11-28T14:46:24.942Z,18.48
2022-11-28T14:49:23.936Z,14.23
2022-11-28T14:55:21.745Z,18.20
2022-11-28T14:57:56.160Z,17.15
2022-11-28T15:00:26.347Z,13.77
2022-11-28T15:03:20.444Z,16.75
2022-11-28T15:05:51.698Z,16.15
2022-11-28T15:08:46.536Z,13.23
2022-11-28T15:11:26.053Z,17.60
2022-11-28T15:14:08.808Z,12.48
2022-11-28T15:16:42.848Z,11.45
2022-11-28T15:19:21.603Z,12.68
2022-11-28T15:21:51.744Z,10.35
2022-11-28T15:24:28.852Z,14.65
2022-11-28T15:26:59.563Z,11.52
2022-11-28T15:29:29.252Z,14.63
2022-11-28T15:31:59.243Z,10.25
2022-11-28T15:34:29.961Z,12.48
2022-11-28T15:37:00.534Z,8.32
2022-11-28T15:39:34.918Z,9.90
2022-11-28T15:42:06.975Z,12.63
2022-11-28T15:44:36.504Z,8.20
2022-11-28T15:47:05.091Z,9.43
2022-11-28T15:49:34.553Z,14.27
2022-11-28T15:52:04.516Z,7.18
2022-11-28T15:54:35.589Z,8.05
2022-11-28T15:57:05.989Z,12.55
2022-11-28T15:59:34.183Z,8.70
2022-11-28T16:02:12.418Z,6.93
2022-11-28T16:04:40.919Z,7.85
2022-11-28T16:07:15.232Z,9.75
2022-11-28T16:09:54.752Z,7.78
2022-11-28T16:12:24.304Z,8.18
2022-11-28T16:14:55.288Z,7.30
2022-11-28T16:17:26.995Z,10.68
2022-11-28T16:19:56.521Z,5.75
2022-11-28T16:22:29.512Z,7.53
2022-11-28T16:24:57.566Z,10.00
2022-11-28T16:27:34.821Z,11.40
2022-11-28T16:30:03.867Z,8.10
2022-11-28T16:32:38.268Z,9.93
2022-11-28T16:35:08.501Z,9.80
2022-11-28T16:37:36.360Z,11.35
2022-11-28T16:40:08.103Z,9.73
2022-11-28T16:42:37.552Z,14.05
2022-11-28T16:45:17.127Z,8.55
2022-11-28T16:47:46.152Z,10.88
2022-11-28T16:50:19.135Z,8.20
2022-11-28T16:52:52.760Z,18.77
2022-11-28T16:55:40.776Z,7.13
2022-11-28T16:58:19.436Z,16.15
2022-11-28T17:00:58.108Z,9.85
2022-11-28T17:03:57.268Z,9.63
2022-11-28T17:06:29.933Z,6.47
2022-11-28T17:08:57.918Z,7.25
2022-11-28T17:11:29.091Z,9.55
2022-11-28T17:14:00.375Z,6.23
2022-11-28T17:16:30.292Z,11.23
2022-11-28T17:18:58.100Z,9.32
2022-11-28T17:21:33.007Z,7.63
2022-11-28T17:24:01.122Z,9.40
2022-11-28T17:26:29.204Z,14.25
2022-11-28T17:28:58.638Z,10.15
2022-11-28T17:31:26.636Z,9.07
2022-11-28T17:33:54.418Z,11.00
2022-11-28T17:36:22.629Z,10.38
2022-11-28T17:38:50.443Z,11.95
2022-11-28T17:41:18.239Z,13.13
2022-11-28T17:43:46.454Z,9.40
2022-11-28T17:46:15.836Z,8.98
2022-11-28T17:48:43.653Z,10.35
2022-11-28T17:51:11.961Z,9.85
2022-11-28T17:53:39.810Z,8.88
2022-11-28T17:56:08.212Z,9.05
2022-11-28T17:58:35.957Z,10.90
2022-11-28T18:01:03.954Z,9.40
2022-11-28T18:03:33.114Z,9.63
2022-11-28T18:06:01.033Z,11.57
2022-11-28T18:08:28.798Z,9.32
2022-11-28T18:11:08.780Z,11.68
2022-11-28T18:13:36.982Z,9.07
2022-11-28T18:16:04.778Z,12.77
2022-11-28T18:18:34.619Z,8.60
2022-11-28T18:21:03.060Z,8.98
2022-11-28T18:23:30.968Z,8.13
2022-11-28T18:25:58.703Z,8.32
2022-11-28T18:28:26.827Z,7.90
2022-11-28T18:30:54.564Z,9.95
2022-11-28T18:33:22.344Z,10.90
2022-11-28T18:35:51.424Z,9.98
2022-11-28T18:38:19.297Z,13.30
2022-11-28T18:40:47.066Z,13.07
2022-11-28T18:43:15.305Z,12.90
2022-11-28T18:45:43.357Z,10.52
2022-11-28T18:48:11.225Z,36.30
2022-11-28T18:50:38.975Z,13.52
2022-11-28T18:53:08.133Z,9.73
2022-11-28T18:55:35.940Z,8.73
2022-11-28T18:58:03.754Z,9.43
2022-11-28T19:00:31.506Z,7.22
2022-11-28T19:02:59.288Z,7.63
2022-11-28T19:05:27.187Z,11.30
2022-11-28T19:07:57.215Z,7.75
2022-11-28T19:10:26.421Z,9.38
2022-11-28T19:12:54.423Z,10.90
2022-11-28T19:15:22.133Z,8.48
2022-11-28T19:17:49.936Z,10.85
2022-11-28T19:20:18.299Z,14.48
2022-11-28T19:22:46.105Z,20.58
2022-11-28T19:25:13.907Z,14.18
2022-11-28T19:27:43.057Z,11.77
2022-11-28T19:30:11.418Z,16.13
2022-11-28T19:32:39.190Z,10.77
2022-11-28T19:35:09.758Z,9.07
2022-11-28T19:37:37.881Z,9.75
2022-11-28T19:40:06.876Z,10.35
2022-11-28T19:42:35.305Z,12.13
2022-11-28T19:45:05.344Z,10.95
2022-11-28T19:47:33.082Z,15.45
2022-11-28T19:50:00.808Z,9.70
2022-11-28T19:52:29.121Z,9.40
2022-11-28T19:54:56.919Z,10.52
2022-11-28T19:57:26.246Z,14.65
2022-11-28T19:59:53.979Z,9.85
2022-11-28T20:02:24.168Z,10.82
2022-11-28T20:04:52.473Z,10.10
2022-11-28T20:07:20.604Z,10.60
2022-11-28T20:09:49.227Z,10.93
2022-11-28T20:12:16.979Z,8.43
2022-11-28T21:25:38.395Z,10.45
2022-11-28T21:28:06.677Z,9.38
2022-11-28T21:30:34.468Z,9.60
2022-11-28T21:33:02.266Z,10.80
2022-11-28T21:35:30.312Z,9.73
2022-11-28T21:37:58.660Z,11.65
2022-11-28T21:40:26.409Z,9.77
2022-11-28T21:42:55.528Z,11.63
2022-11-28T21:45:24.027Z,8.98
2022-11-28T21:47:52.288Z,10.35
2022-11-28T21:50:20.070Z,9.77
2022-11-28T21:52:47.965Z,11.52
2022-11-28T21:55:15.994Z,12.98
2022-11-28T21:57:43.754Z,10.23
2022-11-28T22:00:31.645Z,10.45
2022-11-28T22:05:52.524Z,10.63
2022-11-28T22:08:20.690Z,10.43
2022-11-28T22:10:48.759Z,11.32
2022-11-28T22:13:17.447Z,11.65
2022-11-28T22:15:46.825Z,10.82
2022-11-28T22:18:14.563Z,9.68
2022-11-28T22:20:45.739Z,12.05
2022-11-28T22:23:15.537Z,10.13
2022-11-28T22:25:52.163Z,12.68
2022-11-28T22:28:19.998Z,8.73
2022-11-28T22:30:49.195Z,11.30
2022-11-28T22:33:17.113Z,11.60
2022-11-28T22:35:45.673Z,9.85
2022-11-28T22:38:13.843Z,12.27
2022-11-28T22:40:41.790Z,10.10
2022-11-28T22:43:09.625Z,12.23
2022-11-28T22:45:37.524Z,9.32
2022-11-28T22:48:07.376Z,9.80
2022-11-28T22:50:39.954Z,12.82
2022-11-28T22:53:08.271Z,11.13
2022-11-28T22:55:36.447Z,11.52
2022-11-28T22:58:04.193Z,14.00
2022-11-28T23:00:31.909Z,10.35
2022-11-28T23:02:59.913Z,10.27
2022-11-28T23:05:30.003Z,9.52
2022-11-28T23:08:12.465Z,10.63
2022-11-28T23:10:40.285Z,11.55
2022-11-28T23:13:08.442Z,9.80
2022-11-28T23:15:40.396Z,11.55
2022-11-28T23:18:11.499Z,11.98
2022-11-28T23:20:40.749Z,14.18
2022-11-28T23:23:08.723Z,10.00
2022-11-28T23:25:37.094Z,9.82
2022-11-28T23:28:05.034Z,12.75
2022-11-28T23:30:32.760Z,12.73
2022-11-28T23:33:00.522Z,12.13
2022-11-28T23:35:29.429Z,13.00
2022-11-28T23:37:58.538Z,14.55
2022-11-28T23:40:26.317Z,14.77
2022-11-28T23:42:54.103Z,15.02
2022-11-28T23:45:21.824Z,17.30
2022-11-28T23:47:49.563Z,18.98
2022-11-28T23:50:18.476Z,19.92
2022-11-28T23:52:46.243Z,17.83
2022-11-28T23:55:15.503Z,17.38
2022-11-28T23:57:43.381Z,17.83
